createdAt,value
2023-04-10T00:01:45.026Z,11.63
2023-04-10T00:04:11.689Z,12.15
2023-04-10T00:06:38.339Z,12.55
2023-04-10T00:09:04.751Z,11.10
2023-04-10T00:11:31.362Z,13.07
2023-04-10T00:13:57.827Z,12.73
2023-04-10T00:16:24.484Z,12.43
2023-04-10T00:18:51.111Z,11.95
2023-04-10T00:21:17.542Z,12.57
2023-04-10T00:23:43.990Z,12.70
2023-04-10T00:26:10.467Z,12.63
2023-04-10T00:28:38.174Z,13.35
2023-04-10T00:31:05.340Z,13.05
2023-04-10T00:33:31.783Z,13.88
2023-04-10T00:35:58.381Z,12.32
2023-04-10T00:38:24.871Z,12.98
2023-04-10T00:40:51.308Z,12.25
2023-04-10T00:43:20.188Z,11.88
2023-04-10T00:45:47.881Z,11.93
2023-04-10T00:48:15.501Z,12.40
2023-04-10T00:50:43.159Z,12.70
2023-04-10T00:53:09.670Z,12.30
2023-04-10T00:55:36.958Z,11.50
2023-04-10T00:58:03.518Z,13.23
2023-04-10T01:00:30.202Z,11.75
2023-04-10T01:02:56.966Z,12.98
2023-04-10T01:05:24.266Z,12.38
2023-04-10T01:08:09.688Z,13.63
2023-04-10T01:10:44.739Z,12.70
2023-04-10T01:13:34.143Z,11.90
2023-04-10T01:16:16.088Z,13.43
2023-04-10T01:18:48.678Z,13.13
2023-04-10T01:21:16.221Z,14.27
2023-04-10T01:24:01.683Z,13.40
2023-04-10T01:26:57.492Z,13.38
2023-04-10T01:29:26.830Z,15.65
2023-04-10T01:31:57.281Z,13.68
2023-04-10T01:34:45.024Z,14.93
2023-04-10T01:37:21.955Z,13.60
2023-04-10T01:39:51.440Z,13.10
2023-04-10T01:42:19.515Z,15.10
2023-04-10T01:44:47.129Z,13.48
2023-04-10T01:47:14.551Z,15.88
2023-04-10T01:49:45.091Z,12.60
2023-04-10T01:52:11.845Z,13.45
2023-04-10T01:54:38.647Z,13.57
2023-04-10T01:57:06.385Z,13.50
2023-04-10T01:59:51.246Z,12.65
2023-04-10T02:02:17.942Z,12.70
2023-04-10T02:04:46.995Z,13.10
2023-04-10T02:07:42.822Z,14.10
2023-04-10T02:10:11.202Z,12.48
2023-04-10T02:12:53.689Z,13.15
2023-04-10T02:15:23.603Z,13.35
2023-04-10T02:17:51.339Z,13.77
2023-04-10T02:20:18.645Z,13.37
2023-04-10T02:22:46.577Z,13.73
2023-04-10T02:25:13.123Z,14.02
2023-04-10T02:27:39.624Z,13.75
2023-04-10T02:30:06.598Z,14.80
2023-04-10T02:32:34.989Z,13.73
2023-04-10T02:35:04.477Z,13.65
2023-04-10T02:37:31.292Z,13.65
2023-04-10T02:40:00.193Z,13.98
2023-04-10T02:42:29.819Z,14.15
2023-04-10T02:44:59.578Z,14.35
2023-04-10T02:47:29.740Z,13.60
2023-04-10T02:49:57.025Z,13.85
2023-04-10T02:52:24.011Z,14.90
2023-04-10T02:54:50.518Z,13.77
2023-04-10T02:57:17.013Z,15.27
2023-04-10T02:59:43.569Z,17.67
2023-04-10T03:02:10.534Z,13.93
2023-04-10T03:04:38.292Z,14.25
2023-04-10T03:07:04.888Z,12.82
2023-04-10T03:09:32.301Z,13.80
2023-04-10T03:11:59.165Z,13.53
2023-04-10T03:14:26.311Z,13.32
2023-04-10T03:16:52.782Z,14.32
2023-04-10T03:19:19.300Z,14.40
2023-04-10T03:21:46.349Z,13.30
2023-04-10T03:24:12.974Z,12.33
2023-04-10T03:26:42.874Z,12.43
2023-04-10T03:29:09.311Z,13.15
2023-04-10T03:31:35.806Z,12.70
2023-04-10T03:34:02.437Z,12.50
2023-04-10T03:36:28.957Z,11.90
2023-04-10T03:38:55.509Z,9.48
2023-04-10T03:41:23.611Z,13.57
2023-04-10T03:46:18.587Z,14.45
2023-04-10T03:48:45.507Z,13.43
2023-04-10T03:51:12.431Z,14.23
2023-04-10T03:53:38.977Z,12.05
2023-04-10T03:56:10.214Z,12.50
2023-04-10T03:58:36.903Z,11.68
2023-04-10T04:01:05.109Z,12.43
2023-04-10T04:03:38.026Z,11.90
2023-04-10T04:06:43.050Z,12.13
2023-04-10T04:09:26.082Z,11.85
2023-04-10T04:11:52.836Z,14.07
2023-04-10T04:14:45.817Z,12.68
2023-04-10T04:17:50.999Z,13.00
2023-04-10T04:20:36.218Z,11.93
2023-04-10T04:23:28.821Z,11.68
2023-04-10T04:26:11.248Z,12.05
2023-04-10T04:28:56.336Z,11.75
2023-04-10T04:31:42.663Z,12.07
2023-04-10T04:34:34.653Z,12.27
2023-04-10T04:37:27.057Z,12.18
2023-04-10T04:40:04.948Z,12.45
2023-04-10T04:42:49.910Z,14.02
2023-04-10T04:45:42.264Z,13.23
2023-04-10T04:48:29.004Z,12.93
2023-04-10T04:51:03.896Z,11.73
2023-04-10T04:53:56.549Z,11.43
2023-04-10T04:56:41.882Z,12.53
2023-04-10T04:59:31.566Z,12.45
2023-04-10T05:02:06.416Z,12.65
2023-04-10T05:04:42.576Z,13.75
2023-04-10T05:07:35.992Z,13.20
2023-04-10T05:10:16.466Z,13.30
2023-04-10T05:12:59.078Z,13.40
2023-04-10T05:15:33.894Z,12.23
2023-04-10T05:18:19.992Z,12.43
2023-04-10T05:21:14.824Z,12.50
2023-04-10T05:24:02.039Z,13.40
2023-04-10T05:26:48.830Z,11.90
2023-04-10T05:29:44.767Z,10.63
2023-04-10T05:32:24.785Z,12.52
2023-04-10T05:35:08.610Z,12.27
2023-04-10T05:37:46.827Z,12.45
2023-04-10T05:40:51.619Z,11.50
2023-04-10T05:43:38.257Z,12.10
2023-04-10T05:46:12.469Z,10.80
2023-04-10T05:48:59.461Z,11.05
2023-04-10T05:51:44.764Z,10.60
2023-04-10T05:54:19.734Z,11.23
2023-04-10T05:57:05.739Z,9.70
2023-04-10T05:59:52.515Z,10.37
2023-04-10T06:02:28.132Z,10.48
2023-04-10T06:04:55.364Z,11.18
2023-04-10T06:07:22.315Z,11.52
2023-04-10T06:09:48.821Z,10.60
2023-04-10T06:12:15.457Z,10.23
2023-04-10T06:14:42.197Z,11.23
2023-04-10T06:17:08.901Z,10.88
2023-04-10T06:19:35.720Z,9.60
2023-04-10T06:22:02.156Z,9.88
2023-04-10T06:24:28.737Z,9.50
2023-04-10T06:26:56.999Z,10.93
2023-04-10T06:29:24.001Z,9.80
2023-04-10T06:31:50.651Z,9.20
2023-04-10T06:34:17.226Z,9.98
2023-04-10T06:36:53.407Z,9.60
2023-04-10T06:39:20.328Z,10.18
2023-04-10T06:41:47.780Z,9.63
2023-04-10T06:44:27.350Z,10.02
2023-04-10T06:46:53.851Z,9.52
2023-04-10T06:49:20.619Z,9.10
2023-04-10T06:51:48.230Z,9.43
2023-04-10T06:54:14.705Z,9.95
2023-04-10T06:56:41.365Z,8.95
2023-04-10T06:59:07.855Z,8.85
2023-04-10T07:01:34.449Z,8.73
2023-04-10T07:04:01.142Z,8.95
2023-04-10T07:06:27.884Z,9.32
2023-04-10T07:08:54.640Z,8.90
2023-04-10T07:11:21.571Z,8.85
2023-04-10T07:13:48.080Z,8.77
2023-04-10T07:16:14.741Z,8.15
2023-04-10T07:18:41.358Z,9.75
2023-04-10T07:21:12.200Z,8.52
2023-04-10T07:23:38.756Z,8.55
2023-04-10T07:26:05.388Z,10.45
2023-04-10T07:28:33.466Z,7.93
2023-04-10T07:31:00.003Z,7.97
2023-04-10T07:33:29.011Z,9.23
2023-04-10T07:35:56.935Z,8.32
2023-04-10T07:38:24.642Z,8.20
2023-04-10T07:40:57.702Z,8.73
2023-04-10T07:43:24.427Z,7.43
2023-04-10T07:45:51.016Z,7.88
2023-04-10T07:48:17.664Z,7.97
2023-04-10T07:50:44.189Z,7.45
2023-04-10T07:53:10.936Z,9.00
2023-04-10T07:55:41.660Z,7.82
2023-04-10T07:58:08.356Z,7.88
2023-04-10T08:00:35.070Z,7.25
2023-04-10T08:03:01.856Z,7.47
2023-04-10T08:05:28.736Z,7.30
2023-04-10T08:07:55.251Z,6.80
2023-04-10T08:10:21.714Z,6.50
2023-04-10T08:12:48.151Z,6.90
2023-04-10T08:15:14.613Z,6.85
2023-04-10T08:17:41.388Z,7.80
2023-04-10T08:20:08.372Z,6.72
2023-04-10T08:22:34.816Z,7.00
2023-04-10T08:25:01.263Z,6.70
2023-04-10T08:27:28.453Z,7.07
2023-04-10T08:29:54.936Z,7.43
2023-04-10T08:32:21.537Z,6.63
2023-04-10T08:34:49.506Z,7.63
2023-04-10T08:37:16.066Z,7.78
2023-04-10T08:39:42.484Z,6.68
2023-04-10T08:42:08.951Z,7.05
2023-04-10T08:44:37.152Z,5.88
2023-04-10T08:47:03.758Z,7.00
2023-04-10T08:49:41.014Z,6.45
2023-04-10T08:52:08.407Z,6.72
2023-04-10T08:54:37.988Z,6.40
2023-04-10T08:57:07.318Z,6.88
2023-04-10T08:59:35.498Z,7.97
2023-04-10T09:02:03.238Z,5.93
2023-04-10T09:04:30.059Z,5.68
2023-04-10T09:06:56.560Z,5.90
2023-04-10T09:09:23.007Z,6.18
2023-04-10T09:11:52.589Z,7.53
2023-04-10T09:14:22.913Z,5.90
2023-04-10T09:16:49.640Z,5.15
2023-04-10T09:19:45.418Z,5.20
2023-04-10T09:22:12.145Z,4.80
2023-04-10T09:24:39.397Z,5.22
2023-04-10T09:27:06.287Z,4.78
2023-04-10T09:29:40.192Z,5.35
2023-04-10T09:32:06.603Z,4.88
2023-04-10T09:34:33.082Z,4.50
2023-04-10T09:37:03.426Z,4.40
2023-04-10T09:39:48.275Z,4.40
2023-04-10T09:42:15.226Z,4.93
2023-04-10T09:44:41.955Z,4.20
2023-04-10T09:47:14.422Z,4.65
2023-04-10T09:49:54.119Z,4.65
2023-04-10T09:52:24.750Z,3.90
2023-04-10T09:54:52.119Z,3.72
2023-04-10T09:57:20.322Z,3.55
2023-04-10T09:59:51.185Z,3.65
2023-04-10T10:02:21.479Z,3.25
2023-04-10T10:04:48.645Z,3.72
2023-04-10T10:07:16.300Z,3.60
2023-04-10T10:09:44.018Z,3.38
2023-04-10T10:12:11.446Z,3.53
2023-04-10T10:14:41.679Z,3.17
2023-04-10T10:17:11.083Z,3.55
2023-04-10T10:20:00.985Z,3.00
2023-04-10T10:22:28.772Z,3.55
2023-04-10T10:24:56.847Z,3.55
2023-04-10T10:27:23.630Z,3.80
2023-04-10T10:29:50.612Z,3.40
2023-04-10T10:32:17.932Z,3.30
2023-04-10T10:34:44.623Z,3.45
2023-04-10T10:37:11.764Z,2.95
2023-04-10T10:39:41.341Z,3.30
2023-04-10T10:42:27.998Z,3.90
2023-04-10T10:45:03.593Z,3.38
2023-04-10T10:47:31.068Z,2.70
2023-04-10T10:49:58.442Z,3.85
2023-04-10T10:52:56.194Z,3.95
2023-04-10T10:55:22.875Z,2.85
2023-04-10T10:57:50.321Z,3.40
2023-04-10T11:00:16.923Z,4.20
2023-04-10T11:02:43.680Z,3.60
2023-04-10T11:05:10.266Z,3.20
2023-04-10T11:07:59.967Z,2.80
2023-04-10T11:10:45.230Z,3.17
2023-04-10T11:13:16.121Z,3.75
2023-04-10T11:15:43.245Z,3.38
2023-04-10T11:18:09.653Z,3.20
2023-04-10T11:20:56.019Z,2.90
2023-04-10T11:23:22.475Z,2.85
2023-04-10T11:25:52.125Z,2.95
2023-04-10T11:28:33.930Z,3.42
2023-04-10T11:31:18.344Z,2.85
2023-04-10T11:34:04.600Z,2.85
2023-04-10T11:36:31.943Z,2.75
2023-04-10T11:39:17.716Z,3.03
2023-04-10T11:41:48.422Z,3.00
2023-04-10T11:44:42.199Z,2.70
2023-04-10T11:47:12.573Z,2.58
2023-04-10T11:49:39.205Z,2.88
2023-04-10T11:52:05.662Z,3.17
2023-04-10T11:54:32.603Z,2.97
2023-04-10T11:56:59.149Z,2.95
2023-04-10T11:59:26.065Z,3.00
2023-04-10T12:01:54.288Z,3.40
2023-04-10T12:04:21.968Z,3.10
2023-04-10T12:06:49.925Z,3.50
2023-04-10T12:09:17.518Z,3.40
2023-04-10T12:11:53.468Z,3.15
2023-04-10T12:14:23.347Z,3.47
2023-04-10T12:16:50.873Z,3.58
2023-04-10T12:19:18.096Z,4.40
2023-04-10T12:21:45.544Z,3.40
2023-04-10T12:24:12.256Z,3.30
2023-04-10T12:26:38.711Z,2.90
2023-04-10T12:29:07.131Z,3.45
2023-04-10T12:31:35.029Z,2.97
2023-04-10T12:34:02.158Z,2.78
2023-04-10T12:36:30.083Z,3.47
2023-04-10T12:38:57.349Z,3.08
2023-04-10T12:41:27.327Z,2.85
2023-04-10T12:44:06.375Z,2.88
2023-04-10T12:46:32.854Z,3.60
2023-04-10T12:49:08.731Z,3.10
2023-04-10T12:51:41.386Z,2.80
2023-04-10T12:54:07.819Z,2.80
2023-04-10T12:56:44.379Z,2.97
2023-04-10T12:59:10.861Z,2.63
2023-04-10T13:01:38.431Z,2.65
2023-04-10T13:04:05.237Z,3.38
2023-04-10T13:06:31.987Z,2.38
2023-04-10T13:08:58.466Z,2.97
2023-04-10T13:11:25.016Z,2.50
2023-04-10T13:13:52.625Z,2.40
2023-04-10T13:16:19.147Z,2.22
2023-04-10T13:18:45.703Z,2.40
2023-04-10T13:21:12.192Z,1.98
2023-04-10T13:23:38.722Z,2.22
2023-04-10T13:26:05.188Z,3.70
2023-04-10T13:28:31.659Z,2.33
2023-04-10T13:30:58.797Z,2.28
2023-04-10T13:33:25.501Z,2.08
2023-04-10T13:35:52.043Z,2.17
2023-04-10T13:38:19.992Z,2.50
2023-04-10T13:40:47.818Z,2.50
2023-04-10T13:43:14.434Z,2.78
2023-04-10T13:45:41.106Z,3.28
2023-04-10T13:48:07.756Z,1.98
2023-04-10T13:50:34.423Z,2.72
2023-04-10T13:53:00.974Z,2.22
2023-04-10T13:55:27.439Z,2.38
2023-04-10T13:57:53.949Z,2.40
2023-04-10T14:00:20.572Z,2.35
2023-04-10T14:02:47.105Z,2.67
2023-04-10T14:05:13.675Z,1.85
2023-04-10T14:07:40.252Z,1.88
2023-04-10T14:10:07.127Z,4.20
2023-04-10T14:12:35.301Z,4.97
2023-04-10T14:15:02.629Z,2.67
2023-04-10T14:17:29.258Z,2.13
2023-04-10T14:19:55.737Z,2.20
2023-04-10T14:22:22.277Z,1.92
2023-04-10T14:24:48.989Z,2.00
2023-04-10T14:27:17.173Z,2.00
2023-04-10T14:29:53.888Z,2.08
2023-04-10T14:32:21.093Z,1.70
2023-04-10T14:34:47.650Z,3.28
2023-04-10T14:37:15.403Z,2.22
2023-04-10T14:39:42.151Z,1.80
2023-04-10T14:42:09.080Z,1.90
2023-04-10T14:44:35.698Z,3.58
2023-04-10T14:47:02.154Z,2.25
2023-04-10T14:49:28.604Z,3.22
2023-04-10T14:51:55.034Z,1.90
2023-04-10T14:54:22.056Z,2.10
2023-04-10T14:56:49.370Z,2.28
2023-04-10T14:59:16.558Z,4.60
2023-04-10T15:01:43.746Z,2.00
2023-04-10T15:04:11.828Z,1.88
2023-04-10T15:06:38.358Z,1.90
2023-04-10T15:09:05.234Z,2.10
2023-04-10T15:11:40.229Z,2.25
2023-04-10T15:14:07.436Z,1.80
2023-04-10T15:16:34.050Z,2.00
2023-04-10T15:19:00.706Z,2.47
2023-04-10T15:21:27.528Z,2.40
2023-04-10T15:23:54.385Z,2.88
2023-04-10T15:26:21.442Z,2.25
2023-04-10T15:28:48.238Z,2.95
2023-04-10T15:31:15.679Z,2.50
2023-04-10T15:33:42.249Z,2.20
2023-04-10T15:36:08.897Z,2.90
2023-04-10T15:38:35.898Z,4.68
2023-04-10T15:41:07.978Z,2.83
2023-04-10T15:43:34.671Z,2.30
2023-04-10T15:46:01.948Z,3.70
2023-04-10T15:48:29.155Z,2.75
2023-04-10T15:50:55.729Z,3.95
2023-04-10T15:53:22.179Z,2.75
2023-04-10T15:55:48.888Z,3.60
2023-04-10T15:58:15.634Z,2.55
2023-04-10T16:00:42.209Z,2.50
2023-04-10T16:03:09.096Z,2.65
2023-04-10T16:05:36.890Z,2.30
2023-04-10T16:08:03.584Z,3.45
2023-04-10T16:10:30.680Z,6.40
2023-04-10T16:13:02.811Z,2.50
2023-04-10T16:15:29.864Z,2.25
2023-04-10T16:17:56.806Z,4.82
2023-04-10T16:20:23.223Z,2.58
2023-04-10T16:22:49.716Z,3.35
2023-04-10T16:25:16.627Z,3.40
2023-04-10T16:27:44.088Z,3.83
2023-04-10T16:30:11.686Z,7.53
2023-04-10T16:32:38.140Z,4.60
2023-04-10T16:35:04.994Z,5.50
2023-04-10T16:37:31.483Z,2.95
2023-04-10T16:39:57.966Z,3.80
2023-04-10T16:42:24.424Z,4.00
2023-04-10T16:44:51.974Z,4.63
2023-04-10T16:47:19.749Z,3.60
2023-04-10T16:49:46.491Z,3.15
2023-04-10T16:52:13.239Z,3.58
2023-04-10T16:54:40.099Z,6.35
2023-04-10T16:57:06.933Z,3.85
2023-04-10T16:59:34.325Z,4.03
2023-04-10T17:02:01.109Z,4.30
2023-04-10T17:04:30.497Z,4.22
2023-04-10T17:06:57.365Z,4.15
2023-04-10T17:09:23.945Z,3.75
2023-04-10T17:11:53.438Z,4.73
2023-04-10T17:14:21.110Z,4.00
2023-04-10T17:16:51.169Z,4.50
2023-04-10T17:19:17.901Z,4.40
2023-04-10T17:21:44.513Z,4.88
2023-04-10T17:24:10.961Z,4.95
2023-04-10T17:26:37.512Z,4.95
2023-04-10T17:29:03.972Z,3.80
2023-04-10T17:31:33.828Z,3.90
2023-04-10T17:34:00.405Z,3.80
2023-04-10T17:36:27.127Z,3.72
2023-04-10T17:38:54.285Z,4.22
2023-04-10T17:41:21.172Z,4.00
2023-04-10T17:43:48.168Z,3.85
2023-04-10T17:46:16.434Z,4.68
2023-04-10T17:48:43.825Z,4.50
2023-04-10T17:51:10.663Z,4.13
2023-04-10T17:53:37.640Z,4.50
2023-04-10T17:56:05.044Z,4.10
2023-04-10T17:58:31.695Z,7.35
2023-04-10T18:00:58.405Z,4.70
2023-04-10T18:03:25.013Z,5.38
2023-04-10T18:05:51.686Z,6.93
2023-04-10T18:08:18.165Z,6.43
2023-04-10T18:10:44.620Z,6.07
2023-04-10T18:13:11.855Z,6.40
2023-04-10T18:15:38.375Z,6.97
2023-04-10T18:18:05.069Z,5.90
2023-04-10T18:20:31.576Z,5.80
2023-04-10T18:22:58.059Z,6.82
2023-04-10T18:25:24.546Z,7.78
2023-04-10T18:28:12.916Z,10.18
2023-04-10T18:30:39.444Z,7.75
2023-04-10T18:33:09.981Z,6.97
2023-04-10T18:35:37.711Z,7.43
2023-04-10T18:38:07.075Z,7.78
2023-04-10T18:40:34.590Z,8.07
2023-04-10T18:43:01.037Z,7.65
2023-04-10T18:45:29.197Z,7.68
2023-04-10T18:47:55.676Z,6.50
2023-04-10T18:50:22.176Z,6.78
2023-04-10T18:52:48.603Z,7.75
2023-04-10T18:55:15.134Z,7.13
2023-04-10T18:57:41.805Z,8.18
2023-04-10T19:00:09.532Z,6.70
2023-04-10T19:02:36.263Z,5.43
2023-04-10T19:05:02.983Z,6.18
2023-04-10T19:07:31.720Z,5.47
2023-04-10T19:09:58.210Z,5.97
2023-04-10T19:12:24.629Z,4.43
2023-04-10T19:14:51.147Z,7.63
2023-04-10T19:17:17.571Z,12.10
2023-04-10T19:19:44.540Z,8.45
2023-04-10T19:22:10.995Z,8.45
2023-04-10T19:24:37.465Z,6.50
2023-04-10T19:27:03.925Z,6.15
2023-04-10T19:29:31.204Z,8.05
2023-04-10T19:31:57.885Z,6.07
2023-04-10T19:34:24.441Z,6.03
2023-04-10T19:36:50.944Z,6.38
2023-04-10T19:39:17.375Z,5.40
2023-04-10T19:41:44.059Z,5.22
2023-04-10T19:44:10.581Z,4.72
2023-04-10T19:46:37.117Z,4.18
2023-04-10T19:49:03.638Z,2.63
2023-04-10T19:51:30.069Z,2.88
2023-04-10T19:53:57.705Z,6.13
2023-04-10T19:56:24.699Z,7.03
2023-04-10T19:58:51.231Z,4.97
2023-04-10T20:01:18.094Z,6.93
2023-04-10T20:03:44.756Z,6.53
2023-04-10T20:06:11.452Z,8.20
2023-04-10T20:08:38.085Z,11.75
2023-04-10T20:11:06.280Z,13.80
2023-04-10T20:13:34.463Z,9.90
2023-04-10T20:16:01.148Z,11.40
2023-04-10T20:18:27.675Z,10.57
2023-04-10T20:20:54.339Z,8.02
2023-04-10T20:23:21.458Z,7.82
2023-04-10T20:25:47.941Z,6.43
2023-04-10T20:28:15.174Z,7.28
2023-04-10T20:30:41.755Z,6.05
2023-04-10T20:33:08.376Z,7.15
2023-04-10T20:35:35.208Z,7.65
2023-04-10T20:38:01.900Z,6.45
2023-04-10T20:40:28.627Z,9.32
2023-04-10T20:42:55.164Z,8.45
2023-04-10T20:45:21.660Z,7.10
2023-04-10T20:47:48.206Z,7.78
2023-04-10T20:50:14.880Z,7.43
2023-04-10T20:52:41.381Z,8.80
2023-04-10T20:55:08.231Z,5.63
2023-04-10T20:57:35.174Z,7.28
2023-04-10T21:00:01.720Z,4.60
2023-04-10T21:02:28.491Z,4.13
2023-04-10T21:04:55.094Z,6.47
2023-04-10T21:07:21.559Z,5.15
2023-04-10T21:09:50.352Z,4.63
2023-04-10T21:12:16.902Z,7.03
2023-04-10T21:14:43.387Z,3.83
2023-04-10T21:17:09.879Z,2.50
2023-04-10T21:19:36.325Z,7.93
2023-04-10T21:22:02.996Z,5.72
2023-04-10T21:24:29.586Z,7.30
2023-04-10T21:26:56.455Z,4.88
2023-04-10T21:29:22.999Z,4.25
2023-04-10T21:31:50.620Z,5.63
2023-04-10T21:34:17.276Z,4.95
2023-04-10T21:36:43.905Z,7.57
2023-04-10T21:39:10.406Z,6.40
2023-04-10T21:41:37.415Z,6.65
2023-04-10T21:44:04.316Z,9.20
2023-04-10T21:46:31.230Z,4.82
2023-04-10T21:48:57.849Z,5.45
2023-04-10T21:51:26.707Z,5.53
2023-04-10T21:53:53.386Z,11.85
2023-04-10T21:56:20.059Z,6.15
2023-04-10T21:58:46.616Z,4.70
2023-04-10T22:01:13.192Z,5.88
2023-04-10T22:03:39.950Z,5.18
2023-04-10T22:06:06.768Z,5.47
2023-04-10T22:08:33.396Z,6.47
2023-04-10T22:10:59.881Z,5.45
2023-04-10T22:13:30.918Z,7.07
2023-04-10T22:15:58.383Z,6.88
2023-04-10T22:18:24.926Z,8.63
2023-04-10T22:20:51.545Z,11.38
2023-04-10T22:23:18.653Z,7.53
2023-04-10T22:25:45.174Z,7.07
2023-04-10T22:28:11.711Z,5.45
2023-04-10T22:30:38.246Z,8.35
2023-04-10T22:33:05.980Z,10.13
2023-04-10T22:35:32.690Z,7.40
2023-04-10T22:37:59.208Z,9.13
2023-04-10T22:40:25.780Z,4.03
2023-04-10T22:42:52.415Z,5.72
2023-04-10T22:45:19.677Z,6.28
2023-04-10T22:47:46.266Z,7.20
2023-04-10T22:50:12.807Z,7.15
2023-04-10T22:52:39.303Z,8.85
2023-04-10T22:55:06.951Z,8.30
2023-04-10T22:57:34.025Z,8.25
2023-04-10T23:00:00.868Z,5.60
2023-04-10T23:02:27.906Z,8.45
2023-04-10T23:04:54.647Z,9.35
2023-04-10T23:07:21.154Z,10.07
2023-04-10T23:09:47.831Z,5.68
2023-04-10T23:12:14.309Z,6.63
2023-04-10T23:14:41.021Z,5.07
2023-04-10T23:17:07.739Z,5.10
2023-04-10T23:19:34.330Z,5.47
2023-04-10T23:22:00.944Z,5.43
2023-04-10T23:24:27.419Z,8.13
2023-04-10T23:26:53.898Z,5.90
2023-04-10T23:29:20.427Z,4.70
2023-04-10T23:31:46.957Z,3.97
2023-04-10T23:34:13.536Z,5.07
2023-04-10T23:36:40.542Z,3.83
2023-04-10T23:39:07.121Z,5.00
2023-04-10T23:41:33.646Z,4.00
2023-04-10T23:44:00.121Z,4.30
2023-04-10T23:46:26.665Z,3.65
2023-04-10T23:48:54.856Z,4.32
2023-04-10T23:51:21.474Z,2.95
2023-04-10T23:53:48.054Z,4.47
2023-04-10T23:56:14.849Z,5.90
2023-04-10T23:58:41.425Z,4.38
